Time;durP1;ratioP1;P1;durP2;ratioP2;P2;SDS_P1;SDS_P2;PMS_P1;PMS_P2;Temp;Humidity;BMP_temperature;BMP_pressure;BME280_temperature;BME280_humidity;BME280_pressure;Samples;Min_cycle;Max_cycle;Signal;HPM_P1;HPM_P2
2022/04/13 00:01:06;;;;;;;13.27;6.47;;;;;;;6.55;64.83;100716.63;4899301;29;20509;-78
2022/04/13 00:03:34;;;;;;;15.75;6.68;;;;;;;6.50;64.64;100721.25;4899171;29;20055;-78
2022/04/13 00:06:03;;;;;;;12.85;6.78;;;;;;;6.47;63.92;100725.81;4882619;29;20135;-76
2022/04/13 00:08:31;;;;;;;11.35;6.50;;;;;;;6.72;61.97;100731.94;4898957;29;20446;-75
2022/04/13 00:11:00;;;;;;;14.13;7.25;;;;;;;6.47;63.25;100731.09;4899070;29;20063;-75
2022/04/13 00:13:29;;;;;;;10.68;6.72;;;;;;;6.40;64.50;100729.59;4881994;29;20049;-75
2022/04/13 00:15:57;;;;;;;13.93;6.63;;;;;;;6.36;64.41;100731.47;4899101;29;20498;-76
2022/04/13 00:18:26;;;;;;;13.23;7.15;;;;;;;6.37;65.67;100734.97;4881871;29;20566;-76
2022/04/13 00:20:55;;;;;;;12.52;7.47;;;;;;;6.29;66.02;100733.47;4898920;29;20044;-76
2022/04/13 00:23:23;;;;;;;12.90;7.07;;;;;;;6.39;66.11;100738.47;4898726;29;20051;-76
2022/04/13 00:25:51;;;;;;;13.07;7.68;;;;;;;6.29;67.12;100733.47;4881767;29;20063;-75
2022/04/13 00:28:19;;;;;;;13.05;7.47;;;;;;;6.18;67.67;100737.44;4881570;29;20071;-76
2022/04/13 00:30:48;;;;;;;11.38;7.05;;;;;;;6.21;67.78;100730.22;4898536;29;20550;-76
2022/04/13 00:33:17;;;;;;;13.57;7.60;;;;;;;6.46;67.00;100734.66;4881549;29;20147;-76
2022/04/13 00:35:45;;;;;;;15.38;8.07;;;;;;;6.59;66.51;100735.97;4898733;29;20053;-77
2022/04/13 00:38:13;;;;;;;14.95;8.13;;;;;;;6.52;67.13;100734.44;4898388;29;20044;-77
2022/04/13 00:40:41;;;;;;;17.67;8.32;;;;;;;6.59;66.93;100735.97;4898563;29;20079;-77
2022/04/13 00:43:10;;;;;;;17.75;9.15;;;;;;;6.54;67.65;100735.25;4898923;29;20570;-75
2022/04/13 00:45:38;;;;;;;17.08;8.95;;;;;;;6.45;68.34;100732.91;4897927;29;20104;-78
2022/04/13 00:48:09;;;;;;;20.90;9.80;;;;;;;6.47;68.55;100736.41;4898450;29;20044;-77
2022/04/13 00:50:38;;;;;;;17.13;9.40;;;;;;;6.50;68.26;100737.16;4881955;29;20459;-78
2022/04/13 00:53:11;;;;;;;17.48;9.98;;;;;;;6.36;69.24;100735.91;4898767;29;20135;-78
2022/04/13 00:55:41;;;;;;;16.15;9.73;;;;;;;6.18;70.10;100745.38;4898263;29;20044;-78
2022/04/13 00:58:13;;;;;;;17.40;9.88;;;;;;;6.17;70.12;100740.97;4898442;29;20072;-78
2022/04/13 01:00:48;;;;;;;20.55;9.70;;;;;;;6.32;69.90;100743.09;4898164;29;20539;-79
2022/04/13 01:03:20;;;;;;;17.75;9.68;;;;;;;6.26;69.91;100744.16;4898315;29;20045;-78
2022/04/13 01:05:50;;;;;;;17.30;9.57;;;;;;;6.20;70.42;100748.81;4881137;29;20056;-78
2022/04/13 01:08:19;;;;;;;16.13;9.60;;;;;;;6.30;70.26;100745.81;4881758;29;20060;-77
2022/04/13 01:10:49;;;;;;;17.35;10.20;;;;;;;6.49;68.99;100743.38;4881314;29;20490;-77
2022/04/13 01:13:18;;;;;;;16.92;9.57;;;;;;;6.33;69.97;100744.81;4881322;29;20569;-77
2022/04/13 01:15:47;;;;;;;18.30;10.10;;;;;;;6.20;70.63;100744.41;4898124;29;20052;-77
2022/04/13 01:18:18;;;;;;;18.63;9.88;;;;;;;6.08;71.35;100749.22;4898379;29;20045;-75
2022/04/13 01:20:52;;;;;;;18.58;9.90;;;;;;;6.14;71.66;100744.59;4898524;29;20077;-76
2022/04/13 01:23:23;;;;;;;14.60;9.02;;;;;;;6.22;71.04;100752.28;4881539;29;20079;-77
2022/04/13 01:25:53;;;;;;;17.90;9.77;;;;;;;5.94;72.24;100741.75;4897930;29;20410;-77
2022/04/13 01:28:22;;;;;;;16.02;9.10;;;;;;;6.08;71.79;100744.81;4897939;29;20081;-75
2022/04/13 01:30:57;;;;;;;15.68;9.20;;;;;;;6.02;72.15;100750.31;4881411;29;20076;-75
2022/04/13 01:33:28;;;;;;;18.73;9.50;;;;;;;6.00;72.77;100749.50;4897881;29;20044;-74
2022/04/13 01:36:00;;;;;;;17.08;10.13;;;;;;;5.86;73.46;100751.69;4898060;29;20060;-75
2022/04/13 01:38:31;;;;;;;16.67;9.52;;;;;;;5.84;73.52;100758.81;4898033;29;20131;-75
2022/04/13 01:40:59;;;;;;;16.50;9.48;;;;;;;5.79;73.52;100773.97;4898182;29;20048;-76
2022/04/13 01:43:28;;;;;;;19.17;9.73;;;;;;;5.69;74.83;100774.31;4881210;29;20387;-76
2022/04/13 01:45:57;;;;;;;18.25;9.63;;;;;;;5.75;74.44;100779.38;4881348;29;20116;-75
2022/04/13 01:48:26;;;;;;;22.70;10.15;;;;;;;5.52;75.77;100773.97;4897708;29;20045;-76
2022/04/13 01:50:54;;;;;;;18.65;9.90;;;;;;;5.57;75.82;100779.97;4898234;29;20079;-76
2022/04/13 01:53:22;;;;;;;18.35;9.13;;;;;;;5.46;75.89;100776.78;4897850;29;20068;-75
2022/04/13 01:55:53;;;;;;;17.42;9.82;;;;;;;5.49;76.41;100778.47;4897917;29;20045;-76
2022/04/13 01:58:22;;;;;;;17.38;9.68;;;;;;;5.46;76.53;100780.28;4897854;29;20048;-77
2022/04/13 02:00:54;;;;;;;17.10;9.35;;;;;;;5.40;76.82;100772.56;4897870;29;20076;-76
2022/04/13 02:03:23;;;;;;;19.07;9.30;;;;;;;5.47;76.80;100784.66;4897961;29;20052;-76
2022/04/13 02:05:52;;;;;;;16.42;9.90;;;;;;;5.51;76.78;100781.94;4881661;29;20056;-78
2022/04/13 02:08:21;;;;;;;15.75;9.05;;;;;;;5.49;76.95;100779.31;4898744;29;20550;-78
2022/04/13 02:10:50;;;;;;;15.65;9.38;;;;;;;5.46;77.08;100784.72;4898577;29;20044;-77
2022/04/13 02:13:21;;;;;;;15.85;9.30;;;;;;;5.44;77.06;100778.63;4881207;29;20056;-76
2022/04/13 02:15:49;;;;;;;16.40;9.70;;;;;;;5.28;78.06;100777.34;4898914;29;20041;-78
2022/04/13 02:18:18;;;;;;;18.02;9.80;;;;;;;5.08;79.91;100785.88;4901293;29;20048;-77
2022/04/13 02:20:46;;;;;;;20.77;9.63;;;;;;;5.22;79.06;100788.13;4900859;29;20048;-78
2022/04/13 02:23:14;;;;;;;14.63;9.10;;;;;;;5.17;79.00;100791.75;4901574;29;20108;-77
2022/04/13 02:25:42;;;;;;;15.65;8.75;;;;;;;5.41;77.20;100798.09;4900786;29;20048;-77
2022/04/13 02:28:12;;;;;;;16.45;9.77;;;;;;;5.32;77.31;100784.28;4884094;29;20061;-78
2022/04/13 02:30:40;;;;;;;16.92;9.13;;;;;;;5.19;77.95;100783.75;4900665;29;20045;-78
2022/04/13 02:33:13;;;;;;;16.58;9.20;;;;;;;5.09;79.26;100787.59;4900922;29;20105;-77
2022/04/13 02:35:41;;;;;;;17.42;10.00;;;;;;;5.07;78.61;100792.94;4900626;29;20105;-77
2022/04/13 02:38:10;;;;;;;17.70;9.13;;;;;;;5.02;79.19;100781.63;4883665;29;20506;-76
2022/04/13 02:40:38;;;;;;;14.90;9.02;;;;;;;4.86;79.84;100770.63;4900257;29;20048;-75
2022/04/13 02:43:06;;;;;;;17.02;9.57;;;;;;;4.82;79.88;100779.53;4900421;29;20566;-76
2022/04/13 02:45:36;;;;;;;16.20;9.55;;;;;;;4.87;80.11;100792.63;4900571;29;20127;-80
2022/04/13 02:48:04;;;;;;;19.40;10.02;;;;;;;4.82;80.19;100789.25;4900845;29;20454;-78
2022/04/13 02:50:33;;;;;;;18.50;9.15;;;;;;;4.85;80.39;100791.81;4900844;29;20052;-79
2022/04/13 02:53:01;;;;;;;17.77;9.38;;;;;;;4.88;79.78;100794.38;4901019;29;20036;-82
2022/04/13 02:55:30;;;;;;;18.25;9.95;;;;;;;4.81;80.18;100787.50;4900403;29;20045;-78
2022/04/13 02:57:58;;;;;;;17.00;9.73;;;;;;;5.02;78.98;100786.03;4900247;29;20125;-78
2022/04/13 03:00:26;;;;;;;16.98;9.63;;;;;;;4.92;79.63;100789.84;4900389;29;20044;-79
2022/04/13 03:02:56;;;;;;;19.08;10.07;;;;;;;4.77;80.66;100785.88;4900205;29;20048;-78
2022/04/13 03:05:25;;;;;;;19.77;10.50;;;;;;;4.75;80.90;100779.78;4883960;29;20061;-77
2022/04/13 03:07:53;;;;;;;18.98;9.32;;;;;;;4.73;81.50;100786.84;4899876;29;20516;-78
2022/04/13 03:10:21;;;;;;;17.48;9.20;;;;;;;4.64;82.49;100777.44;4900272;29;20455;-77
2022/04/13 03:12:50;;;;;;;17.25;9.70;;;;;;;4.51;83.84;100784.81;4899766;29;20052;-77
2022/04/13 03:15:22;;;;;;;18.80;9.93;;;;;;;4.35;85.67;100787.91;4900279;29;20108;-78
2022/04/13 03:17:51;;;;;;;23.07;10.07;;;;;;;4.32;85.91;100789.69;4899894;29;20410;-77
2022/04/13 03:20:21;;;;;;;19.38;9.45;;;;;;;4.35;85.99;100787.91;4900043;29;20832;-77
2022/04/13 03:22:50;;;;;;;19.20;9.75;;;;;;;4.42;85.32;100790.31;4899960;29;20561;-79
2022/04/13 03:25:18;;;;;;;15.68;8.95;;;;;;;4.51;84.35;100790.09;4882726;29;20083;-76
2022/04/13 03:27:46;;;;;;;13.40;8.40;;;;;;;4.59;84.03;100797.81;4899052;29;20045;-80
2022/04/13 03:30:16;;;;;;;17.08;9.20;;;;;;;4.66;82.52;100798.53;4899551;29;20553;-80
2022/04/13 03:32:45;;;;;;;15.38;9.65;;;;;;;4.66;82.32;100804.69;4899962;29;20531;-81
2022/04/13 03:35:13;;;;;;;17.02;9.23;;;;;;;4.69;82.70;100806.34;4899872;29;20044;-81
2022/04/13 03:37:42;;;;;;;16.98;8.77;;;;;;;4.67;82.55;100808.19;4899265;29;20122;-78
2022/04/13 03:40:12;;;;;;;18.50;9.10;;;;;;;4.67;82.92;100808.19;4899468;29;20045;-78
2022/04/13 03:42:42;;;;;;;16.27;9.30;;;;;;;4.53;84.00;100811.16;4899615;29;20040;-78
2022/04/13 03:45:12;;;;;;;17.60;9.65;;;;;;;4.43;84.78;100823.75;4882725;29;20068;-78
2022/04/13 03:47:41;;;;;;;17.55;9.70;;;;;;;4.48;84.17;100821.88;4899470;29;20072;-79
2022/04/13 03:50:10;;;;;;;13.88;9.20;;;;;;;4.37;84.81;100836.28;4899713;29;20072;-74
2022/04/13 03:52:39;;;;;;;18.17;9.93;;;;;;;4.31;85.39;100826.72;4899009;29;20127;-74
2022/04/13 03:55:10;;;;;;;18.92;9.95;;;;;;;4.32;85.63;100823.16;4882367;29;20052;-74
2022/04/13 03:57:39;;;;;;;18.17;9.70;;;;;;;4.38;85.11;100825.66;4882098;29;20108;-74
2022/04/13 04:00:09;;;;;;;17.00;10.20;;;;;;;4.32;85.52;100837.25;4882197;29;20049;-75
2022/04/13 04:02:38;;;;;;;17.05;10.00;;;;;;;4.24;85.93;100830.41;4898967;29;20061;-77
2022/04/13 04:05:07;;;;;;;17.33;10.32;;;;;;;4.37;85.50;100831.84;4882471;29;20104;-77
2022/04/13 04:07:35;;;;;;;21.30;10.23;;;;;;;4.34;85.43;100839.84;4898887;29;20058;-79
2022/04/13 04:10:04;;;;;;;21.33;10.52;;;;;;;4.31;85.21;100829.34;4899192;29;20041;-77
2022/04/13 04:12:38;;;;;;;18.42;10.10;;;;;;;4.55;84.14;100836.66;4898870;29;20143;-76
2022/04/13 04:15:06;;;;;;;;;;;;;;;4.59;83.07;100843.59;4899307;29;20049;-74
2022/04/13 04:17:37;;;;;;;15.98;9.77;;;;;;;4.57;83.56;100844.56;4898892;29;19930;-78
2022/04/13 04:20:07;;;;;;;17.23;9.88;;;;;;;4.53;83.76;100846.38;4898993;29;20049;-78
2022/04/13 04:22:36;;;;;;;19.25;10.82;;;;;;;4.56;83.31;100834.91;4882080;29;20056;-76
2022/04/13 04:25:05;;;;;;;17.48;10.65;;;;;;;4.71;82.68;100839.75;4898736;29;20052;-78
2022/04/13 04:27:33;;;;;;;16.90;9.93;;;;;;;4.71;82.13;100844.19;4898509;29;20169;-78
2022/04/13 04:30:04;;;;;;;18.20;9.75;;;;;;;4.90;80.37;100845.41;4898493;29;20123;-76
2022/04/13 04:32:32;;;;;;;20.05;9.13;;;;;;;5.08;78.77;100849.31;4898779;29;20096;-78
2022/04/13 04:35:01;;;;;;;16.40;9.70;;;;;;;5.15;78.32;100857.06;4898654;29;20546;-75
2022/04/13 04:37:29;;;;;;;16.33;9.75;;;;;;;5.15;76.72;100853.53;4881724;29;20068;-77
2022/04/13 04:39:57;;;;;;;16.08;9.45;;;;;;;5.23;76.11;100850.69;4881220;29;20083;-78
2022/04/13 04:42:27;;;;;;;16.05;9.23;;;;;;;5.35;75.58;100847.69;4898397;29;20055;-76
2022/04/13 04:44:57;;;;;;;16.58;10.07;;;;;;;5.35;75.59;100855.63;4881355;29;20057;-78
2022/04/13 04:47:27;;;;;;;15.13;9.80;;;;;;;5.38;75.41;100859.03;4898367;29;20045;-77
2022/04/13 04:49:55;;;;;;;17.63;9.38;;;;;;;5.48;74.47;100854.31;4898212;29;20494;-79
2022/04/13 04:52:23;;;;;;;15.60;8.85;;;;;;;5.61;74.64;100866.31;4881882;29;20041;-78
2022/04/13 04:54:51;;;;;;;21.08;10.90;;;;;;;5.64;74.04;100866.19;4898282;29;20127;-78
2022/04/13 04:57:20;;;;;;;18.77;10.80;;;;;;;5.71;74.04;100870.41;4881819;29;20049;-77
2022/04/13 04:59:48;;;;;;;16.17;9.70;;;;;;;5.84;73.71;100870.03;4881430;29;20053;-78
2022/04/13 05:02:16;;;;;;;18.92;10.32;;;;;;;5.96;73.04;100861.72;4898627;29;20104;-78
2022/04/13 05:04:46;;;;;;;21.83;10.50;;;;;;;5.97;73.70;100868.75;4898769;29;20056;-77
2022/04/13 05:07:14;;;;;;;17.98;10.63;;;;;;;5.96;73.13;100873.19;4899107;29;20076;-76
2022/04/13 05:09:42;;;;;;;17.88;10.52;;;;;;;5.82;73.63;100870.06;4881386;29;20102;-77
2022/04/13 05:12:11;;;;;;;22.50;10.68;;;;;;;6.17;72.49;100876.91;4898492;29;20562;-78
2022/04/13 05:14:39;;;;;;;17.92;10.48;;;;;;;6.31;71.02;100880.00;4881293;29;20057;-78
2022/04/13 05:17:08;;;;;;;24.60;10.18;;;;;;;6.47;70.46;100874.22;4881780;29;20080;-77
2022/04/13 05:19:36;;;;;;;19.35;9.95;;;;;;;6.72;69.28;100869.78;4880861;29;20581;-76
2022/04/13 05:22:05;;;;;;;17.65;10.05;;;;;;;6.62;69.25;100878.97;4898033;29;20062;-75
2022/04/13 05:24:34;;;;;;;21.45;10.85;;;;;;;6.67;68.88;100884.16;4898230;29;20051;-75
2022/04/13 05:27:02;;;;;;;20.55;11.93;;;;;;;6.93;68.42;100877.91;4880434;29;20060;-72
2022/04/13 05:29:30;;;;;;;19.15;11.15;;;;;;;7.04;67.41;100878.41;4897730;29;20044;-72
2022/04/13 05:31:58;;;;;;;18.38;11.07;;;;;;;7.15;66.11;100889.53;4880591;29;20054;-73
2022/04/13 05:34:32;;;;;;;19.60;11.32;;;;;;;7.39;65.32;100880.66;4897689;29;20048;-75
2022/04/13 05:37:00;;;;;;;18.27;11.10;;;;;;;7.56;63.09;100895.97;4880954;29;20056;-75
2022/04/13 05:39:30;;;;;;;17.85;10.48;;;;;;;7.71;62.51;100894.50;4881302;29;20052;-79
2022/04/13 05:41:58;;;;;;;17.98;10.05;;;;;;;7.85;61.43;100902.81;4880681;29;20443;-77
2022/04/13 05:44:27;;;;;;;19.23;10.18;;;;;;;7.81;61.16;100900.31;4881234;29;20053;-80
2022/04/13 05:46:55;;;;;;;17.75;10.15;;;;;;;8.23;60.47;100903.09;4881068;29;20143;-78
2022/04/13 05:49:23;;;;;;;17.20;10.07;;;;;;;8.29;59.59;100898.38;4897480;29;20056;-78
2022/04/13 05:51:51;;;;;;;16.83;9.82;;;;;;;8.17;59.73;100901.53;4883051;29;20474;-78
2022/04/13 05:54:20;;;;;;;16.48;9.25;;;;;;;8.74;57.59;100899.25;4884474;29;20045;-77
2022/04/13 05:56:49;;;;;;;19.33;9.23;;;;;;;9.09;55.59;100905.72;4901689;29;20072;-77
2022/04/13 05:59:18;;;;;;;17.50;9.73;;;;;;;9.39;54.38;100898.19;4901118;29;20044;-76
2022/04/13 06:01:46;;;;;;;21.00;9.73;;;;;;;9.29;55.48;100899.53;4883915;29;20131;-79
2022/04/13 06:04:15;;;;;;;17.98;8.82;;;;;;;9.62;54.50;100908.63;4901100;29;20049;-82
2022/04/13 06:06:43;;;;;;;19.85;9.90;;;;;;;9.90;53.04;100910.03;4900903;29;20052;-83
2022/04/13 06:09:11;;;;;;;18.00;9.32;;;;;;;9.95;52.24;100908.03;4884556;29;20140;-83
2022/04/13 06:11:39;;;;;;;14.18;9.23;;;;;;;10.02;52.10;100914.78;4901674;29;20045;-78
2022/04/13 06:14:09;;;;;;;17.50;9.57;;;;;;;10.53;51.11;100914.09;4901041;29;20052;-79
2022/04/13 06:16:37;;;;;;;17.15;9.65;;;;;;;10.96;49.82;100914.59;4884578;29;20104;-79
2022/04/13 06:19:05;;;;;;;16.08;9.40;;;;;;;11.61;48.80;100912.09;4900894;29;20045;-79
2022/04/13 06:21:34;;;;;;;15.65;9.35;;;;;;;12.38;46.11;100914.94;4900880;29;20040;-79
2022/04/13 06:24:02;;;;;;;20.65;9.70;;;;;;;12.73;44.91;100909.34;4883932;29;20053;-79
2022/04/13 06:26:30;;;;;;;15.70;9.10;;;;;;;13.43;43.23;100916.72;4884034;29;20060;-81
2022/04/13 06:28:58;;;;;;;15.20;9.05;;;;;;;13.52;42.50;100915.31;4884019;29;20048;-77
2022/04/13 06:31:28;;;;;;;16.65;9.57;;;;;;;13.48;42.78;100916.44;4884097;29;20490;-79
2022/04/13 06:33:56;;;;;;;15.65;9.25;;;;;;;13.07;43.01;100921.59;4883567;29;20495;-78
2022/04/13 06:36:25;;;;;;;16.80;9.48;;;;;;;13.89;42.50;100918.34;4900414;29;20091;-78
2022/04/13 06:38:54;;;;;;;16.05;9.02;;;;;;;14.05;41.38;100927.13;4883143;29;20100;-77
2022/04/13 06:41:23;;;;;;;16.15;9.15;;;;;;;14.20;40.93;100923.50;4883807;29;20057;-78
2022/04/13 06:43:53;;;;;;;14.32;8.75;;;;;;;13.72;40.99;100916.75;4883492;29;20136;-78
2022/04/13 06:46:21;;;;;;;13.73;8.23;;;;;;;13.43;40.68;100926.59;4883841;29;20446;-77
2022/04/13 06:48:50;;;;;;;13.63;7.65;;;;;;;13.40;40.77;100927.63;4900264;29;20049;-78
2022/04/13 06:51:19;;;;;;;14.13;8.73;;;;;;;13.65;41.03;100926.97;4883391;29;20061;-78
2022/04/13 06:53:47;;;;;;;12.07;7.25;;;;;;;13.44;39.86;100922.94;4900375;29;20045;-79
2022/04/13 06:56:15;;;;;;;11.05;6.38;;;;;;;13.25;39.59;100923.22;4900294;29;20088;-78
2022/04/13 06:58:45;;;;;;;12.50;6.85;;;;;;;13.02;39.53;100921.00;4883240;29;20049;-79
2022/04/13 07:01:14;;;;;;;11.48;7.20;;;;;;;12.62;40.86;100923.34;4883227;29;20108;-78
2022/04/13 07:03:42;;;;;;;10.40;6.25;;;;;;;12.20;41.03;100934.69;4882047;29;20112;-78
2022/04/13 07:06:12;;;;;;;10.35;6.05;;;;;;;12.40;40.23;100930.91;4883162;29;20479;-78
2022/04/13 07:09:00;;;;;;;10.95;5.90;;;;;;;12.05;40.20;100928.38;4899929;29;20048;-78
2022/04/13 07:11:28;;;;;;;9.75;5.93;;;;;;;11.96;40.02;100926.22;4900204;29;20116;-77
2022/04/13 07:13:56;;;;;;;12.38;6.20;;;;;;;11.77;40.11;100929.00;4883087;29;20429;-78
2022/04/13 07:16:25;;;;;;;10.75;5.57;;;;;;;11.75;40.57;100928.22;4899913;29;20398;-78
2022/04/13 07:18:53;;;;;;;12.75;5.82;;;;;;;11.79;40.78;100926.25;4882892;29;20447;-77
2022/04/13 07:21:23;;;;;;;10.05;5.13;;;;;;;11.94;39.63;100939.66;4883176;29;20403;-79
2022/04/13 07:24:12;;;;;;;10.80;5.90;;;;;;;11.91;40.03;100942.53;4882681;29;20052;-79
2022/04/13 07:26:40;;;;;;;12.13;5.85;;;;;;;11.96;40.38;100947.59;4882739;29;20052;-77
2022/04/13 07:29:08;;;;;;;11.32;5.22;;;;;;;12.11;39.93;100946.78;4899668;29;20458;-79
2022/04/13 07:31:38;;;;;;;10.32;5.85;;;;;;;12.00;40.66;100944.69;4899658;29;20091;-77
2022/04/13 07:34:06;;;;;;;12.10;5.85;;;;;;;12.03;41.14;100946.31;4899748;29;20051;-78
2022/04/13 07:36:36;;;;;;;8.93;6.03;;;;;;;12.06;40.56;100940.78;4882571;29;20091;-79
2022/04/13 07:39:05;;;;;;;17.02;7.95;;;;;;;12.01;40.65;100933.03;4882436;29;20052;-78
2022/04/13 07:41:33;;;;;;;12.45;5.80;;;;;;;11.95;40.37;100936.03;4882594;29;20075;-77
2022/04/13 07:44:01;;;;;;;11.13;5.32;;;;;;;12.08;39.87;100943.41;4882448;29;20060;-78
2022/04/13 07:46:30;;;;;;;7.22;4.90;;;;;;;12.07;38.61;100947.03;4882819;29;20494;-78
2022/04/13 07:48:58;;;;;;;8.45;5.20;;;;;;;12.04;39.50;100940.88;4882452;29;20044;-78
2022/04/13 07:51:28;;;;;;;9.40;6.03;;;;;;;11.88;39.19;100942.69;4899350;29;20060;-78
2022/04/13 07:53:58;;;;;;;9.63;5.47;;;;;;;12.04;40.88;100946.22;4898801;29;20387;-78
2022/04/13 07:56:26;;;;;;;8.98;5.55;;;;;;;12.36;40.49;100946.28;4882251;29;20052;-79
2022/04/13 07:58:54;;;;;;;7.82;5.10;;;;;;;12.56;39.01;100946.00;4899050;29;20048;-78
2022/04/13 08:01:22;;;;;;;10.90;5.57;;;;;;;12.39;39.66;100946.09;4882314;29;20049;-77
2022/04/13 08:03:51;;;;;;;9.20;5.55;;;;;;;12.43;39.67;100950.31;4899289;29;20131;-78
2022/04/13 08:06:40;;;;;;;11.20;5.25;;;;;;;12.56;39.02;100945.13;4899422;29;20399;-77
2022/04/13 08:09:09;;;;;;;8.57;5.15;;;;;;;12.46;38.16;100946.63;4898720;29;20052;-78
2022/04/13 08:11:37;;;;;;;9.57;5.70;;;;;;;12.66;37.99;100940.13;4898948;29;20569;-78
2022/04/13 08:14:06;;;;;;;8.55;5.07;;;;;;;12.64;38.57;100947.34;4898575;29;20056;-79
2022/04/13 08:16:37;;;;;;;11.05;5.82;;;;;;;12.70;38.00;100944.31;4882032;29;20562;-78
2022/04/13 08:19:06;;;;;;;9.90;5.05;;;;;;;12.63;38.76;100942.94;4898840;29;20104;-78
2022/04/13 08:21:34;;;;;;;9.45;5.47;;;;;;;12.45;37.80;100936.84;4882266;29;20049;-78
2022/04/13 08:24:02;;;;;;;9.23;5.15;;;;;;;12.54;38.83;100950.53;4898617;29;20509;-77
2022/04/13 08:26:32;;;;;;;9.25;4.95;;;;;;;12.59;38.01;100940.47;4881935;29;20076;-77
2022/04/13 08:29:00;;;;;;;9.07;4.85;;;;;;;12.66;37.94;100940.97;4881469;29;20079;-78
2022/04/13 08:31:28;;;;;;;11.27;5.38;;;;;;;12.73;37.62;100936.97;4881720;29;20083;-78
2022/04/13 08:33:56;;;;;;;10.80;5.32;;;;;;;13.05;37.17;100945.81;4881375;29;20142;-79
2022/04/13 08:36:25;;;;;;;9.63;4.45;;;;;;;13.00;37.47;100938.97;4898509;29;20108;-79
2022/04/13 08:38:53;;;;;;;9.05;5.10;;;;;;;13.14;36.23;100934.53;4881550;29;20057;-78
2022/04/13 08:41:30;;;;;;;9.07;4.95;;;;;;;13.15;35.94;100933.59;4881382;29;20402;-77
2022/04/13 08:44:08;;;;;;;8.75;4.78;;;;;;;13.28;35.97;100938.22;4881567;29;20052;-77
2022/04/13 08:46:40;;;;;;;9.93;4.70;;;;;;;13.21;35.48;100939.53;4898366;29;20071;-78
2022/04/13 08:49:10;;;;;;;8.02;3.90;;;;;;;13.25;35.06;100927.72;4898337;29;20055;-78
2022/04/13 08:52:03;;;;;;;7.47;3.22;;;;;;;13.27;33.80;100936.50;4898351;29;20072;-78
2022/04/13 08:54:33;;;;;;;8.02;4.20;;;;;;;13.38;34.73;100929.53;4897740;29;20052;-78
2022/04/13 08:57:04;;;;;;;8.68;3.83;;;;;;;13.45;34.50;100922.00;4898348;29;20375;-78
2022/04/13 09:00:02;;;;;;;8.18;4.57;;;;;;;13.51;35.36;100928.78;4898365;29;20056;-77
2022/04/13 09:03:09;;;;;;;6.90;3.65;;;;;;;13.66;33.67;100936.75;4881167;29;20139;-77
2022/04/13 09:05:51;;;;;;;7.07;3.60;;;;;;;13.60;33.94;100930.88;4843457;29;20059;-77
2022/04/13 09:08:21;;;;;;;9.15;4.20;;;;;;;13.60;34.22;100936.25;4892870;29;20148;-78
2022/04/13 09:10:52;;;;;;;7.05;4.47;;;;;;;13.62;34.28;100932.53;4881627;29;20052;-77
2022/04/13 09:13:21;;;;;;;8.73;4.75;;;;;;;13.62;34.99;100921.81;4898013;29;20044;-77
2022/04/13 09:15:52;;;;;;;7.65;4.40;;;;;;;13.88;34.03;100932.72;4881406;29;20102;-78
2022/04/13 09:18:20;;;;;;;9.23;4.88;;;;;;;13.89;33.61;100929.06;4881251;29;20495;-78
2022/04/13 09:20:49;;;;;;;9.88;4.80;;;;;;;13.90;34.15;100938.88;4898114;29;20057;-77
2022/04/13 09:23:18;;;;;;;7.50;4.38;;;;;;;13.75;33.87;100930.81;4897635;29;20073;-78
2022/04/13 09:25:47;;;;;;;9.13;4.90;;;;;;;13.73;34.48;100929.19;4898931;29;20045;-78
2022/04/13 09:28:15;;;;;;;8.50;4.20;;;;;;;13.80;34.42;100918.91;4901711;29;20072;-78
2022/04/13 09:30:43;;;;;;;9.02;5.40;;;;;;;13.84;34.47;100924.00;4885162;29;20053;-78
2022/04/13 09:33:13;;;;;;;9.07;5.40;;;;;;;13.95;35.31;100924.19;4884598;29;20474;-77
2022/04/13 09:35:43;;;;;;;8.45;5.28;;;;;;;14.05;35.63;100911.03;4885124;29;20059;-77
2022/04/13 09:38:11;;;;;;;7.70;5.10;;;;;;;13.84;35.66;100909.75;4884360;29;20057;-79
2022/04/13 09:40:41;;;;;;;10.77;5.55;;;;;;;13.90;35.33;100909.38;4901923;29;20057;-79
2022/04/13 09:43:18;;;;;;;10.57;5.85;;;;;;;13.89;35.21;100908.47;4884668;29;20052;-78
2022/04/13 09:45:47;;;;;;;10.80;4.95;;;;;;;14.04;34.61;100904.81;4901883;29;20048;-78
2022/04/13 09:48:18;;;;;;;7.30;4.95;;;;;;;14.02;34.56;100904.06;4901404;29;20083;-77
2022/04/13 09:50:48;;;;;;;9.68;5.30;;;;;;;14.18;33.93;100906.59;4884781;29;20063;-78
2022/04/13 09:53:19;;;;;;;9.55;4.85;;;;;;;14.24;34.38;100897.31;4901261;29;20080;-78
2022/04/13 09:55:51;;;;;;;10.45;5.32;;;;;;;14.35;34.04;100902.81;4885004;29;20183;-78
2022/04/13 09:58:22;;;;;;;9.65;5.47;;;;;;;14.30;33.74;100903.16;4884428;29;20044;-78
2022/04/13 10:00:53;;;;;;;10.27;5.47;;;;;;;14.21;33.91;100898.38;4901364;29;20051;-78
2022/04/13 10:03:24;;;;;;;10.60;5.72;;;;;;;14.17;34.37;100901.34;4901173;29;20048;-78
2022/04/13 10:05:54;;;;;;;10.85;5.75;;;;;;;14.14;34.49;100899.72;4884417;29;20108;-78
2022/04/13 10:08:24;;;;;;;10.40;5.25;;;;;;;14.36;34.75;100901.00;4884237;29;20052;-78
2022/04/13 10:10:56;;;;;;;12.05;5.63;;;;;;;14.41;33.66;100897.06;4884718;29;20075;-78
2022/04/13 10:13:33;;;;;;;9.65;5.10;;;;;;;14.49;33.74;100888.56;4884094;29;20052;-77
2022/04/13 10:16:02;;;;;;;10.63;5.68;;;;;;;14.37;32.73;100890.16;4884598;29;20053;-77
2022/04/13 10:18:53;;;;;;;9.43;5.90;;;;;;;14.11;34.28;100889.19;4900978;29;20072;-76
2022/04/13 10:21:44;;;;;;;11.02;5.43;;;;;;;14.36;34.32;100872.34;4884020;29;20468;-78
2022/04/13 10:24:25;;;;;;;9.15;5.57;;;;;;;14.52;33.69;100880.28;4883963;29;20054;-78
2022/04/13 10:27:01;;;;;;;10.20;5.50;;;;;;;14.64;33.36;100879.47;4883817;29;20056;-76
2022/04/13 10:29:31;;;;;;;10.90;5.82;;;;;;;14.62;33.47;100889.44;4883821;29;20073;-77
2022/04/13 10:32:09;;;;;;;11.35;6.57;;;;;;;14.76;33.49;100886.69;4883726;29;20399;-78
2022/04/13 10:34:40;;;;;;;9.32;5.68;;;;;;;14.73;33.73;100873.47;4900769;29;20064;-78
2022/04/13 10:37:10;;;;;;;9.05;5.90;;;;;;;14.72;32.54;100871.75;4900602;29;20048;-77
2022/04/13 10:39:41;;;;;;;9.63;5.88;;;;;;;14.56;33.83;100860.31;4884112;29;20051;-76
2022/04/13 10:42:11;;;;;;;11.93;6.57;;;;;;;14.58;33.20;100858.41;4900454;29;20067;-77
2022/04/13 10:44:42;;;;;;;9.77;5.97;;;;;;;14.74;32.53;100861.75;4883965;29;20085;-79
2022/04/13 10:47:14;;;;;;;10.30;6.53;;;;;;;14.76;33.38;100857.13;4900568;29;20457;-78
2022/04/13 10:49:54;;;;;;;11.23;6.38;;;;;;;14.56;32.76;100857.63;4900691;29;20433;-78
2022/04/13 10:52:28;;;;;;;10.98;6.30;;;;;;;14.58;32.87;100842.31;4900164;29;20067;-78
2022/04/13 10:55:04;;;;;;;13.63;6.65;;;;;;;14.59;33.35;100860.13;4900473;29;20060;-76
2022/04/13 10:57:38;;;;;;;13.27;6.90;;;;;;;14.60;33.58;100861.84;4900461;29;20398;-78
2022/04/13 11:00:10;;;;;;;11.73;6.32;;;;;;;14.61;33.85;100852.81;4900534;29;20056;-78
2022/04/13 11:02:46;;;;;;;10.80;6.63;;;;;;;14.56;34.20;100845.06;4883428;29;20092;-77
2022/04/13 11:05:15;;;;;;;12.40;6.97;;;;;;;14.69;34.71;100839.75;4900086;29;20044;-78
2022/04/13 11:07:45;;;;;;;11.88;6.97;;;;;;;14.99;34.51;100841.28;4899873;29;20447;-77
2022/04/13 11:10:19;;;;;;;15.43;7.05;;;;;;;15.15;34.51;100833.88;4883013;29;20080;-78
2022/04/13 11:12:48;;;;;;;10.40;6.80;;;;;;;15.25;33.87;100836.75;4883276;29;20532;-79
2022/04/13 11:15:36;;;;;;;12.50;6.93;;;;;;;15.28;33.06;100832.06;4882814;29;20143;-76
2022/04/13 11:18:08;;;;;;;12.07;6.82;;;;;;;15.24;34.02;100835.91;4883401;29;20056;-78
2022/04/13 11:20:39;;;;;;;11.57;7.00;;;;;;;15.31;33.69;100828.28;4900125;29;20045;-77
2022/04/13 11:23:10;;;;;;;11.80;7.10;;;;;;;15.31;33.58;100830.97;4883108;29;20491;-78
2022/04/13 11:25:51;;;;;;;13.50;7.03;;;;;;;15.37;33.92;100831.41;4900166;29;20044;-77
2022/04/13 11:28:27;;;;;;;12.32;7.55;;;;;;;15.40;33.79;100830.31;4882746;29;20558;-77
2022/04/13 11:31:07;;;;;;;11.30;7.18;;;;;;;15.26;33.48;100812.50;4883325;29;20056;-78
2022/04/13 11:33:50;;;;;;;12.65;7.07;;;;;;;15.25;33.94;100823.31;4883102;29;20056;-77
2022/04/13 11:36:21;;;;;;;12.57;7.55;;;;;;;15.05;33.34;100813.97;4899355;29;20064;-77